Hamdan Juma

Recruteur - Al Wasl
15 Oct 2028
Dimanche
Processus

Personnalité

Adaptabilité (13) Ambition (11) Controverse (17) Loyauté (1) Pression (20) Professionnalisme (12) Sportivité (11) Tempérament (4)

Profil

Style d'entraînement Démocratique
Diplôme National A
Détermination 10
Gestion des joueurs 5
Motivation 9
Discipline 7
Satisfaction professionnelle
100%
Fatigue
0%
Rôle Recruteur
Salaire 42.7K p/s
Contrat 14.03.2030

Performance

Comportement Bon
Efficacité de l'entraînement
43%
Développement des joueurs
45%
Prévention des blessures
65%
Mise en place tactique
40%

Événements récents

A participé à une réunion de recrutement maintenant
A recommandé une cible de transfert maintenant
A recommandé une cible de transfert maintenant
A recommandé une cible de transfert 7j
A évalué un joueur 7j
A évalué un joueur 7j
A observé un match 7j
A évalué un joueur 7j

Suivi en cours

121
Joueur Club Statut Capacité Confiance Observé Dernière observation Dernier vote
Santiago Espíndola River Plate Actif 101 / 124 40% 1 07.10.2028 -
Gideon Manaseh Ikorodu City Actif 100 / 105 40% 1 07.10.2028 -
Björn Hedlöf Helsingborg Actif 106 / 103 40% 4 06.10.2028 -
Adham Farid Rubin Actif 96 / 108 40% 1 06.10.2028 -
Rafael Mota Sporting CP Actif 118 / 128 40% 1 06.10.2028 -
Tomás Valentukonis Najran Actif 94 / 103 40% 1 03.10.2028 -
Felipe Obradovich Ferro Carril Oeste Actif 103 / 108 40% 1 03.10.2028 -
Mohamed Bendary ENPPI Actif 96 / 96 40% 1 03.10.2028 -
Peyton Miller New England Revolution Actif 115 / 120 40% 4 02.10.2028 -
Matías Satas Grimsby Town Actif 109 / 111 40% 1 02.10.2028 -
Samuel Córdoba Depor Actif 92 / 91 40% 1 02.10.2028 -
Mohammed Fallatah Al-Ittihad Actif 96 / 90 40% 1 07.09.2028 -
Yousef Al-Tahan Al-Nassr Actif 101 / 104 40% 1 07.09.2028 -
Estanislao López Colón Actif 87 / 95 40% 2 05.09.2028 -
Abdulrahman Hazazi Al-Ittihad Actif 89 / 95 40% 1 05.09.2028 -
Malachi Molina FC Dallas Actif 95 / 99 40% 1 05.09.2028 -
Riquelme Thompson-Jones Accrington Stanley Actif 115 / 119 40% 2 04.09.2028 -
Triston Rowe Derby County Actif 114 / 126 40% 2 04.09.2028 -
Andrija Bulatović Chamois Niortais Actif 138 / 141 40% 1 04.09.2028 -
Yassin Yasser DAC Dunajska Streda Actif 95 / 92 40% 1 28.08.2028 -
Lucas Silva River Plate Actif 101 / 112 40% 1 13.08.2028 -
Máximo Munarriz San Telmo Actif 102 / 107 40% 3 12.08.2028 -
Andrés Cuenca Como Actif 124 / 128 40% 2 12.08.2028 -
Thulani Manyama Portland Timbers Actif 113 / 118 40% 1 12.08.2028 -
Germán Barbas Racing Santander Actif 111 / 131 40% 1 10.08.2028 -
Tobías Ramírez River Plate Actif 124 / 131 40% 1 10.08.2028 -
Mohamed Atef Al Ahly Actif 100 / 93 40% 1 10.08.2028 -
Miguel Figueiredo Benfica Actif 121 / 135 40% 3 09.08.2028 -
Kwesi Sorotu Badori Berekum Chelsea Actif 98 / 105 40% 2 09.08.2028 -
Mateo Faure BATE Actif 102 / 102 40% 1 09.08.2028 -
Agustín Medina Lanús Actif 115 / 127 40% 1 24.07.2028 -
Morteza Torabi Malavan Actif 99 / 108 40% 1 24.07.2028 -
Favour Ogbu Al Wahda Actif 119 / 113 69% 1 06.06.2028 Approuver
Adrian Şut Al Ain Actif 130 / 130 69% 1 01.06.2028 Approuver
Josh Nichols Oldham Athletic Actif 114 / 121 40% 4 23.01.2028 -
Matvey Bardachev Zenit Actif 113 / 113 40% 3 20.01.2028 -
Matias Siltanen Malmo FF Actif 124 / 138 40% 3 20.01.2028 -
Nazareno Roselli Defensa y Justicia Actif 113 / 127 40% 3 20.01.2028 -
Daniel Banjaqui Benfica Actif 122 / 133 40% 2 19.01.2028 -
Edvard Pettersen Sandefjord Actif 105 / 120 40% 5 18.01.2028 -
Amir Mohammad Razzaghinia Esteghlal Actif 113 / 117 40% 1 18.01.2028 -
Martim Cunha Porto Actif 110 / 116 40% 4 17.01.2028 -
Nahuel Leivas Montevideo City Torque Actif 101 / 104 40% 1 17.01.2028 -
Victor Hernandez Santa Fe Actif 118 / 133 40% 9 17.12.2027 -
Diego Vargas Universidad de Concepcion Actif 100 / 95 40% 4 17.12.2027 -
Joel Ezra Enyimba Actif 91 / 106 40% 5 13.12.2027 -
Gonçalo Oliveira Benfica Actif 117 / 127 40% 4 10.12.2027 -
Tiago Freitas Benfica Actif 118 / 128 40% 2 08.12.2027 -
Vince Osuji Stabaek Actif 106 / 117 40% 2 07.12.2027 -
Colin Guske Orlando City Actif 91 / 97 40% 3 06.12.2027 -
Mohamed Moussa Koïta Mathare United Actif 101 / 100 40% 4 03.12.2027 -
Igor Felisberto Sport Recife Actif 99 / 109 40% 1 03.12.2027 -
Noa Mikić Imotski Actif 119 / 121 40% 1 01.12.2027 -
Josh Torquato FC Dallas Actif 88 / 93 40% 3 30.11.2027 -
Juan Manuel Villalba Tigre Actif 122 / 120 40% 2 30.11.2027 -
Ulises Giménez River Plate Actif 119 / 125 40% 2 29.11.2027 -
Ianis Marin Pandurii Actif 96 / 94 40% 2 29.11.2027 -
Mohamed Bolivar Barranquilla Actif 101 / 101 40% 1 25.11.2027 -
Jair Collahuazo Kudrivka Actif 111 / 111 40% 2 22.11.2027 -
Mikkel Hope Haugesund Actif 108 / 103 40% 2 22.11.2027 -
Omid Moharrami Padideh Actif 96 / 104 40% 1 15.11.2027 -
Godwin Oham Warri Wolves Actif 98 / 85 40% 1 03.11.2027 -
Omar Abdelrahim Al Ahly Actif 92 / 100 40% 1 06.10.2027 -
Issa Yusuf Shooting Stars Actif 95 / 98 40% 1 06.09.2027 -
Tommaso Cecotti Carpi Actif 105 / 101 40% 1 26.07.2027 -
Maxim Radchenko Rostov Actif 90 / 93 40% 1 30.06.2027 -
Edwin Asamoah Berekum Chelsea Actif 91 / 76 40% 1 15.06.2027 -
Leandro Martins Benfica Actif 89 / 99 40% 1 15.06.2027 -
Malik Mothersille Stockport County Actif 123 / 110 40% 2 26.05.2027 -
Lewis Bate Stockport County Actif 123 / 126 40% 2 26.05.2027 -
Tyler Goodrham Oxford United Actif 114 / 121 40% 2 24.05.2027 -
Oston O'runov Persepolis Actif 121 / 117 40% 1 24.05.2027 -
Sonny Carey Charlton Athletic Actif 118 / 122 40% 1 24.05.2027 -
Oswin Appollis Orlando Pirates Actif 121 / 129 40% 4 23.05.2027 -
Mohau Nkota Al-Ettifaq Actif 130 / 121 40% 2 23.05.2027 -
Darragh Burns Grimsby Town Actif 106 / 106 40% 2 22.05.2027 -
Tyreece Campbell Charlton Athletic Actif 114 / 127 40% 2 22.05.2027 -
Dale Taylor Blackpool Actif 119 / 107 40% 2 20.05.2027 -
Marouan Azarkan Al Nasr Actif 131 / 125 40% 2 20.05.2027 -
Ibrahim Bayesh Al Dhafra Actif 125 / 124 40% 3 17.05.2027 -
Joel Bagan Cardiff City Actif 120 / 121 40% 1 17.05.2027 -
Luca Connell Barnsley Actif 107 / 107 40% 1 16.05.2027 -
Declan Frith Peterborough United Actif 116 / 110 40% 1 15.05.2027 -
David Turnbull Cardiff City Actif 117 / 118 40% 2 13.05.2027 -
Othmane Maamma Watford Actif 128 / 126 40% 1 13.05.2027 -
Andre Brooks Sheffield United Actif 129 / 123 40% 1 13.05.2027 -
Sam Bell Bristol City Actif 119 / 123 40% 1 12.05.2027 -
Stiven Shpendi Empoli Actif 123 / 118 40% 1 09.05.2027 -
Alex Robertson Cardiff City Actif 122 / 118 40% 2 05.05.2027 -
Tony Springett Cheltenham Town Actif 113 / 102 40% 2 04.05.2027 -
Ar'jany Martha Rotherham United Actif 101 / 116 40% 3 03.05.2027 -
Zeidane Inoussa Swansea City Actif 125 / 122 40% 1 03.05.2027 -
Sam Greenwood Bristol City Actif 122 / 125 40% 1 29.04.2027 -
Alex Lowry Wycombe Wanderers Actif 110 / 116 40% 1 29.04.2027 -
Xavier Amaechi Plymouth Argyle Actif 106 / 112 40% 1 26.04.2027 -
Pelle Mattsson Norwich City Actif 125 / 129 40% 1 22.04.2027 -
Milson Al Jazira Actif 127 / 128 40% 1 22.04.2027 -
Saleh Abu Al-Shamat Al-Ahli Actif 116 / 119 40% 4 11.04.2027 -
Bradley Zwane SuperSport United Actif 118 / 120 40% 2 11.04.2027 -
Harvey Knibbs Charlton Athletic Actif 105 / 114 40% 1 11.04.2027 -
Merwane Khelif MC Alger Actif 119 / 116 40% 1 08.04.2027 -
Mohanad Ali Dibba Actif 121 / 111 62% 1 01.01.2027 Approuver
Yacine Adli Al-Shabab Actif 136 / 135 40% 2 31.12.2026 -
Mihai Lixandru Al-Fateh Actif 107 / 110 40% 2 30.12.2026 -
Reda Khadra Qarabag Actif 133 / 139 40% 2 30.12.2026 -
Lebogang Manyama SuperSport United Actif 127 / 120 40% 2 25.12.2026 -
Musab Al-Juwayr Al-Qadisiyah Actif 124 / 128 40% 1 25.12.2026 -
Zaydou Youssouf Al-Fateh Actif 127 / 123 40% 1 20.12.2026 -
Aiman Yahya Al-Nassr Actif 114 / 119 40% 3 19.12.2026 -
Abdullah Al Shamsi Al Shabab Actif 109 / 109 40% 2 19.12.2026 -
Nawaf Bu Washl Al-Nassr Actif 108 / 113 40% 2 16.12.2026 -
Ali Majrashi Al-Ahli Actif 121 / 125 40% 2 09.12.2026 -
Bongani Zungu Ajax Cape Town Actif 117 / 122 40% 1 07.12.2026 -
Ziyad Al-Johani Al-Ahli Actif 109 / 119 40% 1 28.11.2026 -
Juan Pablo Gallego Fehervar Actif 125 / 106 40% 1 27.11.2026 -
Ahmed Al-Ghamdi Al-Ittihad Actif 97 / 101 40% 2 21.11.2026 -
Abdulmalik Al-Jaber Al-Nassr Actif 112 / 105 40% 1 20.11.2026 -
Imad Riahi Najran Actif 111 / 101 40% 1 20.11.2026 -
Marin Petkov Al-Taawoun Actif 120 / 129 40% 1 18.11.2026 -
Armstrong Oko-Flex Levski Actif 105 / 108 40% 1 03.11.2026 -
Hamad Al Bloushi Al Shaab Actif 106 / 118 58% 1 17.08.2026 -